Main page
METAR-TAF:

METAR-TAF

Airports :

Reus Airport

Reus, Spain

latitude: 41-09N, longitude: 001-10E, elevation: 71 m

Current weather observation

The report was made 25 minutes ago, at 04:30 UTC
Wind 7 kt from the North
Temperature 5°C
Humidity 93%
Pressure 1019 hPa
Visibility 10 km or more

METAR: LERS 160430Z AUTO 01007KT 9999 BKN021/// 05/04 Q1019

Time: 05:55 (04:55 UTC)

Forecast

The report was made 2 hours and 55 minutes ago, at 02:00 UTC
Forecast valid from 16 at 03 UTC to 17 at 03 UTC
Wind 3 kt from variable directions
Visibility 10 km or more
Few clouds at a height of 2500 ft
Probability 30% :
Temporary
from 16 at 03 UTC to 16 at 08 UTC
Visibility: 2000 m
Broken clouds at a height of 600 ft
mist
Temporary
from 16 at 10 UTC to 16 at 17 UTC
Wind 8 kt from the South/Southwest
Becoming
from 16 at 18 UTC to 16 at 20 UTC
Wind 4 kt from variable directions

TAF: LERS 160200Z 1603/1703 VRB03KT 9999 FEW025 TX16/1613Z TN03/1607Z PROB30 TEMPO 1603/1608 2000 BR BKN006 TEMPO 1610/1617 21008KT BECMG 1618/1620 VRB04KT

Weather observations and forecasts of more than 4000 airports (METAR and TAF reports).

The available stations are represented by yellow and red dots on the map.

Hover mouse over dot to see the name of the station.

Then click to see weather observations and forecasts.

To change the map : click on the green buttons with a black cross to zoom in, on the green button with a dash to zoom out, or on the green arrows for adjacent maps.


METAR-TAF: